createdAt,value
2018-06-29T00:00:40.338Z,17.14
2018-06-29T00:03:09.315Z,17.09
2018-06-29T00:05:38.791Z,17.05
2018-06-29T00:08:07.729Z,17.04
2018-06-29T00:10:36.878Z,17.05
2018-06-29T00:13:06.062Z,17.01
2018-06-29T00:15:35.065Z,17.05
2018-06-29T00:18:04.122Z,17.05
2018-06-29T00:20:33.174Z,17.03
2018-06-29T00:23:02.294Z,16.98
2018-06-29T00:25:31.341Z,16.99
2018-06-29T00:28:00.668Z,16.99
2018-06-29T00:30:29.873Z,17.04
2018-06-29T00:32:58.879Z,17.05
2018-06-29T00:35:27.956Z,17.09
2018-06-29T00:37:57.083Z,17.06
2018-06-29T00:40:26.103Z,17.12
2018-06-29T00:42:55.430Z,17.09
2018-06-29T00:45:24.451Z,17.01
2018-06-29T00:47:53.477Z,17.00
2018-06-29T00:50:22.889Z,16.92
2018-06-29T00:52:51.803Z,16.86
2018-06-29T00:55:20.872Z,16.83
2018-06-29T00:57:50.176Z,16.77
2018-06-29T01:00:19.125Z,16.84
2018-06-29T01:02:48.186Z,16.83
2018-06-29T01:05:17.800Z,16.81
2018-06-29T01:07:46.798Z,16.77
2018-06-29T01:10:16.120Z,16.83
2018-06-29T01:12:45.215Z,16.82
2018-06-29T01:15:14.303Z,16.81
2018-06-29T01:17:43.343Z,16.80
2018-06-29T01:20:12.983Z,16.87
2018-06-29T01:22:41.831Z,16.90
2018-06-29T01:25:10.729Z,16.98
2018-06-29T01:27:39.733Z,16.95
2018-06-29T01:30:08.743Z,16.94
2018-06-29T01:32:37.607Z,16.99
2018-06-29T01:35:06.749Z,17.02
2018-06-29T01:37:35.721Z,17.03
2018-06-29T01:40:05.074Z,17.09
2018-06-29T01:42:34.092Z,17.14
2018-06-29T01:45:03.060Z,17.06
2018-06-29T01:47:32.119Z,17.12
2018-06-29T01:50:01.155Z,17.04
2018-06-29T01:52:30.332Z,17.12
2018-06-29T01:54:59.303Z,17.18
2018-06-29T01:57:28.483Z,17.19
2018-06-29T01:59:57.471Z,17.16
2018-06-29T02:02:26.380Z,17.20
2018-06-29T02:04:55.430Z,17.22
2018-06-29T02:07:24.404Z,17.21
2018-06-29T02:09:53.480Z,17.21
2018-06-29T02:12:22.910Z,17.19
2018-06-29T02:14:51.848Z,17.15
2018-06-29T02:17:21.082Z,17.12
2018-06-29T02:21:19.110Z,17.15
2018-06-29T02:23:48.051Z,17.07
2018-06-29T02:26:17.111Z,17.09
2018-06-29T02:28:46.434Z,17.04
2018-06-29T02:31:15.626Z,16.99
2018-06-29T02:34:48.110Z,17.03
2018-06-29T02:37:17.280Z,17.05
2018-06-29T02:39:46.277Z,17.02
2018-06-29T02:42:15.433Z,16.97
2018-06-29T02:44:44.487Z,16.94
2018-06-29T02:47:13.512Z,16.88
2018-06-29T02:49:42.551Z,16.84
2018-06-29T02:52:11.503Z,16.90
2018-06-29T02:54:40.495Z,16.89
2018-06-29T02:57:10.079Z,16.92
2018-06-29T02:59:39.148Z,16.96
2018-06-29T03:02:08.203Z,16.95
2018-06-29T03:04:37.461Z,16.98
2018-06-29T03:07:06.527Z,17.06
2018-06-29T03:09:35.612Z,17.19
2018-06-29T03:12:04.990Z,17.24
2018-06-29T03:14:33.980Z,17.27
2018-06-29T03:17:03.130Z,17.30
2018-06-29T03:19:32.161Z,17.45
2018-06-29T03:22:01.141Z,17.55
2018-06-29T03:24:30.130Z,17.60
2018-06-29T03:26:59.601Z,17.60
2018-06-29T03:29:28.519Z,17.56
2018-06-29T03:31:57.463Z,17.50
2018-06-29T03:34:26.702Z,17.46
2018-06-29T03:36:55.723Z,17.44
2018-06-29T03:39:24.683Z,17.42
2018-06-29T03:41:53.928Z,17.42
2018-06-29T03:44:22.797Z,17.40
2018-06-29T03:46:51.697Z,17.42
2018-06-29T03:49:21.233Z,17.39
2018-06-29T03:51:50.148Z,17.41
2018-06-29T03:54:19.248Z,17.43
2018-06-29T03:56:48.670Z,17.42
2018-06-29T03:59:17.664Z,17.41
2018-06-29T04:01:46.716Z,17.42
2018-06-29T04:04:15.903Z,17.40
2018-06-29T04:06:45.007Z,17.43
2018-06-29T04:09:13.992Z,17.42
2018-06-29T04:11:43.267Z,17.47
2018-06-29T04:14:12.165Z,17.46
2018-06-29T04:16:41.147Z,17.48
2018-06-29T04:19:10.535Z,17.49
2018-06-29T04:21:39.594Z,17.49
2018-06-29T04:24:08.691Z,17.48
2018-06-29T04:26:37.682Z,17.45
2018-06-29T04:29:06.712Z,17.46
2018-06-29T04:31:35.847Z,17.44
2018-06-29T04:34:05.045Z,17.44
2018-06-29T04:36:33.940Z,17.43
2018-06-29T04:39:02.904Z,17.43
2018-06-29T04:41:32.357Z,17.49
2018-06-29T04:44:01.398Z,17.52
2018-06-29T04:46:30.439Z,17.61
2018-06-29T04:48:59.892Z,17.67
2018-06-29T04:51:29.050Z,17.73
2018-06-29T04:53:58.035Z,17.78
2018-06-29T04:56:27.167Z,17.84
2018-06-29T04:58:56.262Z,17.92
2018-06-29T05:01:25.268Z,18.00
2018-06-29T05:03:54.615Z,18.09
2018-06-29T05:06:23.686Z,18.19
2018-06-29T05:08:52.782Z,18.25
2018-06-29T05:11:22.415Z,18.39
2018-06-29T05:13:51.880Z,18.56
2018-06-29T05:16:20.914Z,18.73
2018-06-29T05:18:50.351Z,18.88
2018-06-29T05:21:19.351Z,19.00
2018-06-29T05:23:48.442Z,19.12
2018-06-29T05:26:17.883Z,19.32
2018-06-29T05:28:46.798Z,19.38
2018-06-29T05:31:15.943Z,19.38
2018-06-29T05:33:45.373Z,19.72
2018-06-29T05:36:14.370Z,20.05
2018-06-29T05:38:43.284Z,20.19
2018-06-29T05:41:12.304Z,20.34
2018-06-29T05:43:41.385Z,20.26
2018-06-29T05:46:10.537Z,20.23
2018-06-29T05:48:39.903Z,19.96
2018-06-29T05:51:09.037Z,20.08
2018-06-29T05:53:38.210Z,20.14
2018-06-29T05:56:07.787Z,20.27
2018-06-29T05:58:36.835Z,20.30
2018-06-29T06:01:09.316Z,20.51
2018-06-29T06:03:38.532Z,20.62
2018-06-29T06:06:07.987Z,20.69
2018-06-29T06:08:37.037Z,20.75
2018-06-29T06:11:06.400Z,20.70
2018-06-29T06:13:35.519Z,20.68
2018-06-29T06:16:04.852Z,20.59
2018-06-29T06:18:33.835Z,20.72
2018-06-29T06:21:02.823Z,20.70
2018-06-29T06:23:32.128Z,20.77
2018-06-29T06:26:01.188Z,20.79
2018-06-29T06:28:30.240Z,20.70
2018-06-29T06:30:59.284Z,20.62
2018-06-29T06:33:28.382Z,20.83
2018-06-29T06:35:57.453Z,21.06
2018-06-29T06:38:26.565Z,20.84
2018-06-29T06:40:55.556Z,20.82
2018-06-29T06:43:24.623Z,20.96
2018-06-29T06:45:54.162Z,21.17
2018-06-29T06:48:23.079Z,21.26
2018-06-29T06:50:52.022Z,21.27
2018-06-29T06:53:21.447Z,20.99
2018-06-29T06:55:50.534Z,20.96
2018-06-29T06:58:19.596Z,21.08
2018-06-29T07:00:48.829Z,21.22
2018-06-29T07:03:17.927Z,21.17
2018-06-29T07:05:46.876Z,21.33
2018-06-29T07:08:16.198Z,21.33
2018-06-29T07:10:45.381Z,21.29
2018-06-29T07:13:14.428Z,21.40
2018-06-29T07:15:43.683Z,21.91
2018-06-29T07:18:12.807Z,22.04
2018-06-29T07:20:41.781Z,22.23
2018-06-29T07:23:11.158Z,22.11
2018-06-29T07:25:40.143Z,22.38
2018-06-29T07:28:09.299Z,22.58
2018-06-29T07:30:38.646Z,22.73
2018-06-29T07:33:07.498Z,22.87
2018-06-29T07:35:36.560Z,22.75
2018-06-29T07:38:06.156Z,22.53
2018-06-29T07:40:35.001Z,22.64
2018-06-29T07:43:03.938Z,22.60
2018-06-29T07:45:32.840Z,22.57
2018-06-29T07:48:01.989Z,22.62
2018-06-29T07:50:31.014Z,22.91
2018-06-29T07:53:00.180Z,22.78
2018-06-29T07:55:29.226Z,22.85
2018-06-29T07:57:58.213Z,23.02
2018-06-29T08:00:27.554Z,22.94
2018-06-29T08:02:56.377Z,23.23
2018-06-29T08:05:25.370Z,23.11
2018-06-29T08:07:54.975Z,23.08
2018-06-29T08:10:23.876Z,23.25
2018-06-29T08:12:52.796Z,22.93
2018-06-29T08:15:22.029Z,22.83
2018-06-29T08:17:50.930Z,22.89
2018-06-29T08:20:19.866Z,23.19
2018-06-29T08:22:48.743Z,23.36
2018-06-29T08:25:18.162Z,23.34
2018-06-29T08:27:47.146Z,23.36
2018-06-29T08:30:16.452Z,23.38
2018-06-29T08:32:45.478Z,23.16
2018-06-29T08:35:14.476Z,23.48
2018-06-29T08:37:43.696Z,23.63
2018-06-29T08:40:12.710Z,23.83
2018-06-29T08:42:41.785Z,23.92
2018-06-29T08:45:11.257Z,23.85
2018-06-29T08:47:40.269Z,23.87
2018-06-29T08:50:09.302Z,23.91
2018-06-29T08:52:38.707Z,23.71
2018-06-29T08:55:07.773Z,23.57
2018-06-29T08:57:36.821Z,23.50
2018-06-29T09:00:07.431Z,23.66
2018-06-29T09:02:36.342Z,23.88
2018-06-29T09:05:05.897Z,23.89
2018-06-29T09:07:35.696Z,23.99
2018-06-29T09:10:05.294Z,23.50
2018-06-29T09:12:34.295Z,23.60
2018-06-29T09:15:03.967Z,23.74
2018-06-29T09:17:33.173Z,23.58
2018-06-29T09:20:02.271Z,23.61
2018-06-29T09:22:31.376Z,23.62
2018-06-29T09:25:00.381Z,23.39
2018-06-29T09:27:29.481Z,23.30
2018-06-29T09:29:58.668Z,23.41
2018-06-29T09:32:27.581Z,23.47
2018-06-29T09:34:56.447Z,23.70
2018-06-29T09:37:25.679Z,23.87
2018-06-29T09:39:54.923Z,23.83
2018-06-29T09:42:23.804Z,23.80
2018-06-29T09:44:52.999Z,23.66
2018-06-29T09:47:21.914Z,23.60
2018-06-29T09:49:50.812Z,23.39
2018-06-29T09:52:19.792Z,23.28
2018-06-29T09:54:48.900Z,23.20
2018-06-29T09:57:17.862Z,23.17
2018-06-29T09:59:46.791Z,23.16
2018-06-29T10:02:15.868Z,23.26
2018-06-29T10:04:45.098Z,23.23
2018-06-29T10:07:14.545Z,23.20
2018-06-29T10:09:43.402Z,23.17
2018-06-29T10:12:12.316Z,23.15
2018-06-29T10:14:41.643Z,23.40
2018-06-29T10:17:10.687Z,23.75
2018-06-29T10:19:39.684Z,24.03
2018-06-29T10:22:09.155Z,24.09
2018-06-29T10:24:38.110Z,24.07
2018-06-29T10:27:07.115Z,24.42
2018-06-29T10:29:36.332Z,24.39
2018-06-29T10:32:05.294Z,24.86
2018-06-29T10:34:36.561Z,24.92
2018-06-29T10:37:05.502Z,24.69
2018-06-29T10:39:34.345Z,24.78
2018-06-29T10:42:03.680Z,24.67
2018-06-29T10:44:33.592Z,24.80
2018-06-29T10:47:02.415Z,24.80
2018-06-29T10:49:31.955Z,24.83
2018-06-29T10:52:00.838Z,25.15
2018-06-29T10:54:29.719Z,25.39
2018-06-29T10:56:59.654Z,25.33
2018-06-29T10:59:28.589Z,25.27
2018-06-29T11:01:57.603Z,25.10
2018-06-29T11:04:26.916Z,25.16
2018-06-29T11:06:55.763Z,25.43
2018-06-29T11:09:24.709Z,25.76
2018-06-29T11:11:53.642Z,25.90
2018-06-29T11:14:22.485Z,25.96
2018-06-29T11:16:51.331Z,26.55
2018-06-29T11:19:20.710Z,26.35
2018-06-29T11:21:49.488Z,26.08
2018-06-29T11:24:18.441Z,26.09
2018-06-29T11:26:47.609Z,26.05
2018-06-29T11:29:16.780Z,26.16
2018-06-29T11:31:45.695Z,25.85
2018-06-29T11:34:15.008Z,25.77
2018-06-29T11:36:43.912Z,25.56
2018-06-29T11:39:14.289Z,25.39
2018-06-29T11:41:43.998Z,25.28
2018-06-29T11:44:13.779Z,25.36
2018-06-29T11:46:42.724Z,25.66
2018-06-29T11:49:11.635Z,25.91
2018-06-29T11:51:40.480Z,25.76
2018-06-29T11:54:09.580Z,26.06
2018-06-29T11:56:38.500Z,25.91
2018-06-29T11:59:07.385Z,25.70
2018-06-29T12:01:36.234Z,25.47
2018-06-29T12:04:05.781Z,25.38
2018-06-29T12:06:34.626Z,25.36
2018-06-29T12:09:03.731Z,25.44
2018-06-29T12:11:33.035Z,25.50
2018-06-29T12:14:01.924Z,25.67
2018-06-29T12:16:30.872Z,25.75
2018-06-29T12:19:00.326Z,25.57
2018-06-29T12:21:29.206Z,25.39
2018-06-29T12:23:58.056Z,25.15
2018-06-29T12:26:27.442Z,25.20
2018-06-29T12:28:56.267Z,25.29
2018-06-29T12:31:25.164Z,25.23
2018-06-29T12:33:54.094Z,25.44
2018-06-29T12:36:22.928Z,25.77
2018-06-29T12:38:51.858Z,25.80
2018-06-29T12:41:20.840Z,25.76
2018-06-29T12:43:50.067Z,26.03
2018-06-29T12:46:19.303Z,26.10
2018-06-29T12:48:48.617Z,25.78
2018-06-29T12:51:17.627Z,25.87
2018-06-29T12:53:46.677Z,25.99
2018-06-29T12:56:16.323Z,26.21
2018-06-29T12:58:45.258Z,26.10
2018-06-29T13:01:14.268Z,26.04
2018-06-29T13:03:43.345Z,25.98
2018-06-29T13:06:12.404Z,25.94
2018-06-29T13:08:42.239Z,25.66
2018-06-29T13:11:11.666Z,25.18
2018-06-29T13:13:40.633Z,25.37
2018-06-29T13:16:09.677Z,25.33
2018-06-29T13:18:39.171Z,25.36
2018-06-29T13:21:08.245Z,25.35
2018-06-29T13:23:37.232Z,25.47
2018-06-29T13:26:06.526Z,25.62
2018-06-29T13:28:35.709Z,25.69
2018-06-29T13:31:04.713Z,25.76
2018-06-29T13:33:33.804Z,25.73
2018-06-29T13:36:02.935Z,25.70
2018-06-29T13:38:31.940Z,25.70
2018-06-29T13:41:01.148Z,25.60
2018-06-29T13:43:30.067Z,25.45
2018-06-29T13:45:58.955Z,25.44
2018-06-29T13:48:27.855Z,25.39
2018-06-29T13:50:56.811Z,25.45
2018-06-29T13:53:25.971Z,25.43
2018-06-29T13:55:55.111Z,25.47
2018-06-29T13:58:24.060Z,25.37
2018-06-29T14:00:53.119Z,25.05
2018-06-29T14:03:22.083Z,24.67
2018-06-29T14:05:51.125Z,24.50
2018-06-29T14:08:19.996Z,24.22
2018-06-29T14:10:49.030Z,24.19
2018-06-29T14:13:18.025Z,24.10
2018-06-29T14:15:47.082Z,24.22
2018-06-29T14:18:16.570Z,24.26
2018-06-29T14:20:45.495Z,24.29
2018-06-29T14:23:14.522Z,24.44
2018-06-29T14:25:43.582Z,24.59
2018-06-29T14:28:12.599Z,24.59
2018-06-29T14:30:41.620Z,24.49
2018-06-29T14:33:11.080Z,24.45
2018-06-29T14:35:40.188Z,24.35
2018-06-29T14:38:09.238Z,24.20
2018-06-29T14:40:38.580Z,24.08
2018-06-29T14:43:07.696Z,23.97
2018-06-29T14:45:36.588Z,23.94
2018-06-29T14:48:05.841Z,23.98
2018-06-29T14:50:34.860Z,24.06
2018-06-29T14:53:04.023Z,24.13
2018-06-29T14:55:33.203Z,24.22
2018-06-29T14:58:02.834Z,24.27
2018-06-29T15:00:31.749Z,24.16
2018-06-29T15:03:01.101Z,24.02
2018-06-29T15:05:30.120Z,24.06
2018-06-29T15:07:59.280Z,24.04
2018-06-29T15:10:28.738Z,23.98
2018-06-29T15:12:57.754Z,23.89
2018-06-29T15:15:27.685Z,23.65
2018-06-29T15:17:56.878Z,23.48
2018-06-29T15:20:26.068Z,23.29
2018-06-29T15:22:55.131Z,23.18
2018-06-29T15:25:24.812Z,23.09
2018-06-29T15:27:54.042Z,23.03
2018-06-29T15:30:24.185Z,22.96
2018-06-29T15:32:53.741Z,22.76
2018-06-29T15:35:22.991Z,22.25
2018-06-29T15:37:51.905Z,21.87
2018-06-29T15:40:21.359Z,21.68
2018-06-29T15:42:56.475Z,21.59
2018-06-29T15:45:25.894Z,21.49
2018-06-29T15:47:55.117Z,21.48
2018-06-29T15:50:42.088Z,21.43
2018-06-29T15:53:12.137Z,21.42
2018-06-29T15:55:48.494Z,21.39
2018-06-29T15:58:21.607Z,21.41
2018-06-29T16:00:54.621Z,21.41
2018-06-29T16:03:27.560Z,21.37
2018-06-29T16:05:57.156Z,21.42
2018-06-29T16:08:26.438Z,21.35
2018-06-29T16:10:55.659Z,21.39
2018-06-29T16:13:25.798Z,21.44
2018-06-29T16:15:59.271Z,21.32
2018-06-29T16:18:29.094Z,21.38
2018-06-29T16:20:58.169Z,21.30
2018-06-29T16:23:31.279Z,21.37
2018-06-29T16:26:01.277Z,21.25
2018-06-29T16:28:30.248Z,21.35
2018-06-29T16:30:59.470Z,21.53
2018-06-29T16:33:28.780Z,21.49
2018-06-29T16:36:01.791Z,21.45
2018-06-29T16:38:36.894Z,21.52
2018-06-29T16:41:06.521Z,21.50
2018-06-29T16:43:39.171Z,21.46
2018-06-29T16:46:11.900Z,21.48
2018-06-29T16:48:42.144Z,21.46
2018-06-29T16:51:17.420Z,21.50
2018-06-29T16:53:46.866Z,21.52
2018-06-29T16:56:17.509Z,21.48
2018-06-29T16:58:46.772Z,21.44
2018-06-29T17:01:15.952Z,21.41
2018-06-29T17:03:45.631Z,21.38
2018-06-29T17:06:14.796Z,21.33
2018-06-29T17:08:44.009Z,21.29
2018-06-29T17:11:13.459Z,21.27
2018-06-29T17:13:43.735Z,21.24
2018-06-29T17:16:15.559Z,21.23
2018-06-29T17:18:44.909Z,21.21
2018-06-29T17:21:14.048Z,21.19
2018-06-29T17:23:51.303Z,21.17
2018-06-29T17:26:20.453Z,21.15
2018-06-29T17:28:49.991Z,21.11
2018-06-29T17:31:25.297Z,21.14
2018-06-29T17:33:55.973Z,21.09
2018-06-29T17:36:30.623Z,21.09
2018-06-29T17:38:59.870Z,21.11
2018-06-29T17:41:34.739Z,21.10
2018-06-29T17:44:07.245Z,21.10
2018-06-29T17:46:40.316Z,21.07
2018-06-29T17:49:12.835Z,21.03
2018-06-29T17:51:54.250Z,21.01
2018-06-29T17:54:27.313Z,20.99
2018-06-29T17:56:57.581Z,20.94
2018-06-29T17:59:26.852Z,20.75
2018-06-29T18:01:56.942Z,20.70
2018-06-29T18:04:28.505Z,20.67
2018-06-29T18:07:01.354Z,20.66
2018-06-29T18:09:31.028Z,20.68
2018-06-29T18:12:00.157Z,20.67
2018-06-29T18:14:32.925Z,20.67
2018-06-29T18:17:02.103Z,20.62
2018-06-29T18:19:31.216Z,20.62
2018-06-29T18:22:00.305Z,20.54
2018-06-29T18:24:29.280Z,20.51
2018-06-29T18:26:58.417Z,20.50
2018-06-29T18:29:27.900Z,20.51
2018-06-29T18:31:57.196Z,20.51
2018-06-29T18:34:26.334Z,20.42
2018-06-29T18:36:55.526Z,20.38
2018-06-29T18:39:28.434Z,20.37
2018-06-29T18:41:58.019Z,20.33
2018-06-29T18:44:27.317Z,20.33
2018-06-29T18:46:56.485Z,20.29
2018-06-29T18:49:25.584Z,20.29
2018-06-29T18:51:54.670Z,20.35
2018-06-29T18:54:23.768Z,20.38
2018-06-29T18:56:53.307Z,20.38
2018-06-29T18:59:25.781Z,20.44
2018-06-29T19:01:55.352Z,20.48
2018-06-29T19:04:24.442Z,20.49
2018-06-29T19:06:53.489Z,20.55
2018-06-29T19:09:23.051Z,20.58
2018-06-29T19:11:52.144Z,20.60
2018-06-29T19:14:21.164Z,20.58
2018-06-29T19:16:50.346Z,20.55
2018-06-29T19:19:19.388Z,20.56
2018-06-29T19:21:48.498Z,20.49
2018-06-29T19:24:17.879Z,20.49
2018-06-29T19:26:46.994Z,20.48
2018-06-29T19:29:16.188Z,20.47
2018-06-29T19:31:45.618Z,20.44
2018-06-29T19:34:14.863Z,20.45
2018-06-29T19:36:43.828Z,20.36
2018-06-29T19:39:13.868Z,20.35
2018-06-29T19:41:43.269Z,20.29
2018-06-29T19:44:15.283Z,20.13
2018-06-29T19:46:44.297Z,20.04
2018-06-29T19:49:16.458Z,19.94
2018-06-29T19:51:45.449Z,19.81
2018-06-29T19:54:15.875Z,19.81
2018-06-29T19:56:45.318Z,19.72
2018-06-29T19:59:14.350Z,19.74
2018-06-29T20:01:43.879Z,19.80
2018-06-29T20:04:13.095Z,19.83
2018-06-29T20:06:42.208Z,19.79
2018-06-29T20:09:13.455Z,19.89
2018-06-29T20:11:42.453Z,19.94
2018-06-29T20:14:14.513Z,20.00
2018-06-29T20:16:43.727Z,19.94
2018-06-29T20:19:13.714Z,19.81
2018-06-29T20:21:43.260Z,19.73
2018-06-29T20:24:12.385Z,19.68
2018-06-29T20:26:41.515Z,19.73
2018-06-29T20:29:10.777Z,19.85
2018-06-29T20:31:39.958Z,19.87
2018-06-29T20:34:11.460Z,19.89
2018-06-29T20:36:40.519Z,19.89
2018-06-29T20:39:12.038Z,19.88
2018-06-29T20:41:41.272Z,19.92
2018-06-29T20:44:10.781Z,19.92
2018-06-29T20:46:39.969Z,19.93
2018-06-29T20:49:09.295Z,19.96
2018-06-29T20:51:38.399Z,19.98
2018-06-29T20:54:07.842Z,20.04
2018-06-29T20:56:37.045Z,20.06
2018-06-29T20:59:06.178Z,20.13
2018-06-29T21:01:35.677Z,20.20
2018-06-29T21:04:05.039Z,20.21
2018-06-29T21:06:34.125Z,20.28
2018-06-29T21:09:03.831Z,20.27
2018-06-29T21:11:33.032Z,20.30
2018-06-29T21:14:02.057Z,20.27
2018-06-29T21:16:31.170Z,20.26
2018-06-29T21:19:00.447Z,20.25
2018-06-29T21:21:29.693Z,20.25
2018-06-29T21:23:59.334Z,20.23
2018-06-29T21:26:28.495Z,20.20
2018-06-29T21:28:57.808Z,20.18
2018-06-29T21:31:28.068Z,20.19
2018-06-29T21:33:57.365Z,20.16
2018-06-29T21:36:26.645Z,20.17
2018-06-29T21:38:56.111Z,20.14
2018-06-29T21:41:25.238Z,20.14
2018-06-29T21:43:54.259Z,20.12
2018-06-29T21:46:23.447Z,20.07
2018-06-29T21:48:52.725Z,20.05
2018-06-29T21:51:21.778Z,20.05
2018-06-29T21:53:51.315Z,19.99
2018-06-29T21:56:20.438Z,19.96
2018-06-29T21:58:49.628Z,19.86
2018-06-29T22:01:19.185Z,19.79
2018-06-29T22:03:48.397Z,19.75
2018-06-29T22:06:17.678Z,19.65
2018-06-29T22:08:46.968Z,19.63
2018-06-29T22:11:16.282Z,19.59
2018-06-29T22:13:45.418Z,19.55
2018-06-29T22:16:14.694Z,19.55
2018-06-29T22:18:43.814Z,19.54
2018-06-29T22:21:12.922Z,19.51
2018-06-29T22:23:41.919Z,19.50
2018-06-29T22:26:11.096Z,19.45
2018-06-29T22:28:40.139Z,19.43
2018-06-29T22:31:09.795Z,19.45
2018-06-29T22:33:38.973Z,19.45
2018-06-29T22:36:08.149Z,19.45
2018-06-29T22:38:37.467Z,19.51
2018-06-29T22:41:06.797Z,19.54
2018-06-29T22:43:36.295Z,19.54
2018-06-29T22:46:06.757Z,19.56
2018-06-29T22:48:35.721Z,19.54
2018-06-29T22:51:05.036Z,19.58
2018-06-29T22:53:34.615Z,19.58
2018-06-29T22:56:03.814Z,19.55
2018-06-29T22:58:33.247Z,19.54
2018-06-29T23:01:02.928Z,19.54
2018-06-29T23:03:37.292Z,19.48
2018-06-29T23:06:06.500Z,19.44
2018-06-29T23:08:35.633Z,19.44
2018-06-29T23:11:04.729Z,19.44
2018-06-29T23:13:33.952Z,19.49
2018-06-29T23:16:03.024Z,19.55
2018-06-29T23:18:32.094Z,19.60
2018-06-29T23:21:01.271Z,19.56
2018-06-29T23:23:30.581Z,19.55
2018-06-29T23:25:59.640Z,19.54
2018-06-29T23:28:29.394Z,19.56
2018-06-29T23:30:58.663Z,19.57
2018-06-29T23:33:27.910Z,19.53
2018-06-29T23:35:56.950Z,19.57
2018-06-29T23:38:26.100Z,19.56
2018-06-29T23:40:55.172Z,19.55
2018-06-29T23:43:24.498Z,19.57
2018-06-29T23:45:53.772Z,19.58
2018-06-29T23:48:22.956Z,19.57
2018-06-29T23:50:52.221Z,19.59
2018-06-29T23:53:21.805Z,19.59
2018-06-29T23:55:50.879Z,19.59
2018-06-29T23:58:20.033Z,19.56
